createdAt,value
2019-01-22T00:05:00.248Z,15.30
2019-01-22T00:10:09.064Z,14.23
2019-01-22T00:15:15.790Z,13.70
2019-01-22T00:20:22.283Z,14.07
2019-01-22T00:25:28.414Z,14.13
2019-01-22T00:30:34.853Z,14.07
2019-01-22T00:35:40.942Z,14.50
2019-01-22T00:40:48.402Z,14.50
2019-01-22T00:45:54.481Z,13.77
2019-01-22T00:51:00.948Z,12.20
2019-01-22T00:56:07.133Z,13.00
2019-01-22T01:01:13.404Z,13.63
2019-01-22T01:06:19.563Z,13.60
2019-01-22T01:11:25.668Z,13.30
2019-01-22T01:16:31.762Z,13.50
2019-01-22T01:21:37.924Z,13.47
2019-01-22T01:26:43.990Z,13.37
2019-01-22T01:31:50.093Z,13.60
2019-01-22T01:36:56.117Z,13.53
2019-01-22T01:42:02.294Z,14.33
2019-01-22T01:47:08.468Z,13.13
2019-01-22T01:52:14.584Z,14.40
2019-01-22T01:57:20.644Z,13.37
2019-01-22T02:02:26.821Z,14.03
2019-01-22T02:07:32.986Z,13.97
2019-01-22T02:13:03.156Z,13.83
2019-01-22T02:18:29.504Z,12.47
2019-01-22T02:24:34.121Z,13.87
2019-01-22T02:30:11.964Z,13.67
2019-01-22T02:35:45.489Z,13.67
2019-01-22T02:41:25.575Z,13.27
2019-01-22T02:47:11.875Z,13.70
2019-01-22T02:53:06.893Z,12.97
2019-01-22T02:58:41.559Z,14.50
2019-01-22T03:04:28.491Z,14.33
2019-01-22T03:10:15.528Z,13.73
2019-01-22T03:16:10.550Z,13.90
2019-01-22T03:21:47.526Z,13.67
2019-01-22T03:27:36.118Z,13.90
2019-01-22T03:33:09.926Z,14.77
2019-01-22T03:38:58.210Z,14.13
2019-01-22T03:44:54.560Z,14.67
2019-01-22T03:50:23.352Z,14.00
2019-01-22T03:55:58.626Z,14.07
2019-01-22T04:01:17.484Z,13.93
2019-01-22T04:06:26.742Z,15.77
2019-01-22T04:11:39.867Z,14.23
2019-01-22T04:16:45.943Z,14.70
2019-01-22T04:21:52.092Z,14.17
2019-01-22T04:27:15.487Z,13.67
2019-01-22T04:32:37.238Z,14.13
2019-01-22T04:38:14.621Z,15.53
2019-01-22T04:43:54.414Z,14.87
2019-01-22T04:49:44.448Z,14.83
2019-01-22T04:55:24.793Z,14.67
2019-01-22T05:01:15.413Z,16.87
2019-01-22T05:06:45.223Z,16.80
2019-01-22T05:12:34.748Z,16.40
2019-01-22T05:18:24.360Z,16.87
2019-01-22T05:23:53.422Z,17.83
2019-01-22T05:29:46.038Z,18.43
2019-01-22T05:35:15.559Z,17.90
2019-01-22T05:41:10.461Z,18.90
2019-01-22T05:47:03.835Z,19.13
2019-01-22T05:52:38.789Z,16.87
2019-01-22T05:58:20.707Z,17.47
2019-01-22T06:04:16.484Z,17.17
2019-01-22T06:09:34.711Z,17.33
2019-01-22T06:15:09.269Z,18.47
2019-01-22T06:20:31.682Z,18.23
2019-01-22T06:26:02.224Z,19.07
2019-01-22T06:31:40.181Z,19.17
2019-01-22T06:37:18.413Z,19.40
2019-01-22T06:42:45.029Z,19.97
2019-01-22T06:48:14.990Z,21.43
2019-01-22T06:53:40.528Z,20.33
2019-01-22T06:59:43.051Z,21.47
2019-01-22T07:05:00.753Z,22.53
2019-01-22T07:10:40.967Z,23.67
2019-01-22T07:16:33.647Z,23.57
2019-01-22T07:22:29.362Z,26.43
2019-01-22T07:28:12.727Z,25.97
2019-01-22T07:33:52.767Z,25.63
2019-01-22T07:39:13.554Z,25.20
2019-01-22T07:44:57.785Z,27.60
2019-01-22T07:50:53.424Z,23.90
2019-01-22T07:56:33.597Z,25.07
2019-01-22T08:02:32.075Z,27.17
2019-01-22T08:08:34.187Z,25.10
2019-01-22T08:14:08.382Z,22.67
2019-01-22T08:19:39.279Z,21.30
2019-01-22T08:25:32.561Z,21.13
2019-01-22T08:31:18.056Z,21.67
2019-01-22T08:37:04.032Z,25.63
2019-01-22T08:42:52.075Z,24.93
2019-01-22T08:48:50.831Z,23.77
2019-01-22T08:54:32.033Z,29.70
2019-01-22T09:00:16.669Z,31.27
2019-01-22T09:05:34.717Z,28.57
2019-01-22T09:11:20.269Z,27.53
2019-01-22T09:16:50.500Z,26.80
2019-01-22T09:22:42.029Z,29.17
2019-01-22T09:28:15.465Z,29.13
2019-01-22T09:33:49.707Z,27.93
2019-01-22T09:38:55.751Z,24.47
2019-01-22T09:44:01.991Z,23.57
2019-01-22T09:49:08.082Z,23.03
2019-01-22T09:54:14.163Z,24.80
2019-01-22T09:59:21.286Z,25.63
2019-01-22T10:04:27.490Z,26.27
2019-01-22T10:09:33.714Z,24.77
2019-01-22T10:14:39.927Z,29.87
2019-01-22T10:19:46.008Z,25.67
2019-01-22T10:24:52.055Z,25.20
2019-01-22T10:29:58.049Z,25.37
2019-01-22T10:35:04.381Z,24.93
2019-01-22T10:40:11.816Z,23.67
2019-01-22T10:45:18.652Z,24.73
2019-01-22T10:50:24.879Z,23.87
2019-01-22T10:55:36.229Z,23.10
2019-01-22T11:00:38.872Z,23.83
2019-01-22T11:05:45.073Z,24.23
2019-01-22T11:10:52.088Z,24.10
2019-01-22T11:15:58.242Z,24.73
2019-01-22T11:21:04.305Z,24.00
2019-01-22T11:26:10.301Z,21.73
2019-01-22T11:31:16.610Z,22.50
2019-01-22T11:36:23.245Z,22.67
2019-01-22T11:41:29.314Z,21.00
2019-01-22T11:46:35.486Z,21.27
2019-01-22T11:51:41.572Z,21.77
2019-01-22T11:56:47.623Z,22.30
2019-01-22T12:01:53.724Z,23.30
2019-01-22T12:06:59.907Z,22.50
2019-01-22T12:12:06.272Z,22.67
2019-01-22T12:17:12.387Z,22.53
2019-01-22T12:22:18.514Z,23.73
2019-01-22T12:27:24.725Z,22.17
2019-01-22T12:32:30.800Z,21.70
2019-01-22T12:37:36.891Z,22.47
2019-01-22T12:42:43.132Z,22.10
2019-01-22T12:47:49.314Z,22.37
2019-01-22T12:52:55.370Z,23.07
2019-01-22T12:58:01.479Z,23.87
2019-01-22T13:03:07.937Z,23.80
2019-01-22T13:08:14.008Z,24.30
2019-01-22T13:13:20.081Z,25.87
2019-01-22T13:18:26.298Z,26.57
2019-01-22T13:23:32.463Z,25.23
2019-01-22T13:28:38.518Z,24.17
2019-01-22T13:33:44.807Z,26.00
2019-01-22T13:38:50.975Z,24.50
2019-01-22T13:43:57.076Z,25.93
2019-01-22T13:49:03.166Z,27.00
2019-01-22T13:54:09.417Z,25.43
2019-01-22T13:59:15.505Z,24.10
2019-01-22T14:04:21.584Z,25.93
2019-01-22T14:09:27.718Z,25.10
2019-01-22T14:14:33.932Z,26.47
2019-01-22T14:19:40.009Z,26.10
2019-01-22T14:24:46.206Z,26.73
2019-01-22T14:29:52.345Z,26.37
2019-01-22T14:34:58.525Z,25.50
2019-01-22T14:40:05.281Z,26.83
2019-01-22T14:45:13.461Z,26.70
2019-01-22T14:50:21.495Z,24.83
2019-01-22T14:55:27.628Z,22.27
2019-01-22T15:00:33.809Z,23.60
2019-01-22T15:05:39.967Z,23.83
2019-01-22T15:10:46.152Z,24.03
2019-01-22T15:15:52.266Z,23.73
2019-01-22T15:20:58.452Z,22.63
2019-01-22T15:26:04.575Z,23.00
2019-01-22T15:31:10.667Z,22.57
2019-01-22T15:36:16.731Z,21.50
2019-01-22T15:41:22.821Z,21.63
2019-01-22T15:46:28.992Z,22.03
2019-01-22T15:51:35.064Z,22.83
2019-01-22T15:56:46.414Z,23.93
2019-01-22T16:01:48.912Z,22.87
2019-01-22T16:06:55.976Z,22.10
2019-01-22T16:12:02.218Z,23.80
2019-01-22T16:17:08.396Z,23.57
2019-01-22T16:22:14.522Z,23.50
2019-01-22T16:27:20.802Z,24.70
2019-01-22T16:32:26.925Z,25.03
2019-01-22T16:37:33.107Z,24.57
2019-01-22T16:42:39.174Z,24.87
2019-01-22T16:47:45.379Z,32.60
2019-01-22T16:52:51.600Z,53.17
2019-01-22T16:57:57.826Z,61.03
2019-01-22T17:03:04.333Z,47.60
2019-01-22T17:08:10.429Z,41.37
2019-01-22T17:13:16.573Z,37.10
2019-01-22T17:18:22.759Z,40.93
2019-01-22T17:23:28.806Z,31.23
2019-01-22T17:28:35.078Z,25.47
2019-01-22T17:33:45.684Z,25.20
2019-01-22T17:38:51.757Z,28.67
2019-01-22T17:43:57.960Z,27.13
2019-01-22T17:49:04.295Z,31.90
2019-01-22T17:54:10.438Z,32.93
2019-01-22T17:59:16.584Z,28.60
2019-01-22T18:04:22.656Z,24.10
2019-01-22T18:09:28.794Z,24.27
2019-01-22T18:14:34.923Z,23.87
2019-01-22T18:19:40.979Z,23.70
2019-01-22T18:24:47.174Z,24.50
2019-01-22T18:29:53.310Z,26.20
2019-01-22T18:34:59.469Z,27.13
2019-01-22T18:40:07.293Z,23.40
2019-01-22T18:45:15.171Z,24.73
2019-01-22T18:50:22.764Z,25.13
2019-01-22T18:55:28.891Z,23.40
2019-01-22T19:00:34.994Z,23.97
2019-01-22T19:05:41.081Z,24.93
2019-01-22T19:10:47.144Z,22.70
2019-01-22T19:15:53.331Z,24.17
2019-01-22T19:20:59.474Z,22.70
2019-01-22T19:26:05.678Z,24.27
2019-01-22T19:31:11.878Z,22.33
2019-01-22T19:36:18.011Z,23.53
2019-01-22T19:41:24.209Z,22.80
2019-01-22T19:46:30.293Z,21.73
2019-01-22T19:51:36.481Z,21.73
2019-01-22T19:56:42.612Z,22.83
2019-01-22T20:01:48.799Z,21.73
2019-01-22T20:06:54.899Z,22.43
2019-01-22T20:12:00.981Z,23.03
2019-01-22T20:17:07.108Z,22.60
2019-01-22T20:22:13.299Z,24.30
2019-01-22T20:27:19.396Z,23.97
2019-01-22T20:32:25.483Z,22.60
2019-01-22T20:37:31.722Z,27.30
2019-01-22T20:42:37.907Z,25.17
2019-01-22T20:47:43.965Z,31.17
2019-01-22T20:52:50.110Z,25.37
2019-01-22T20:57:57.155Z,26.27
2019-01-22T21:03:03.331Z,26.23
2019-01-22T21:08:09.496Z,25.77
2019-01-22T21:13:15.638Z,26.77
2019-01-22T21:18:21.835Z,26.00
2019-01-22T21:23:28.095Z,28.93
2019-01-22T21:28:34.237Z,25.30
2019-01-22T21:33:40.438Z,26.17
2019-01-22T21:38:46.530Z,27.43
2019-01-22T21:43:52.699Z,27.03
2019-01-22T21:48:59.340Z,24.97
2019-01-22T21:54:05.650Z,24.73
2019-01-22T21:59:11.830Z,24.17
2019-01-22T22:04:17.930Z,22.17
2019-01-22T22:09:23.978Z,22.27
2019-01-22T22:14:31.083Z,23.67
2019-01-22T22:19:37.138Z,35.13
2019-01-22T22:24:43.309Z,29.63
2019-01-22T22:29:49.513Z,29.17
2019-01-22T22:34:55.673Z,44.47
2019-01-22T22:40:01.761Z,30.37
2019-01-22T22:45:08.762Z,25.37
2019-01-22T22:50:18.427Z,25.30
2019-01-22T22:55:24.601Z,28.53
2019-01-22T23:00:43.356Z,25.80
2019-01-22T23:05:51.244Z,24.93
2019-01-22T23:10:57.345Z,22.03
2019-01-22T23:16:03.471Z,21.83
2019-01-22T23:21:09.807Z,24.17
2019-01-22T23:26:15.967Z,21.03
2019-01-22T23:31:22.131Z,22.10
2019-01-22T23:36:28.244Z,21.67
2019-01-22T23:41:34.388Z,21.33
2019-01-22T23:46:40.584Z,21.00
2019-01-22T23:51:46.765Z,20.73
2019-01-22T23:56:52.872Z,20.37
